Time;durP1;ratioP1;P1;durP2;ratioP2;P2;SDS_P1;SDS_P2;PMS_P1;PMS_P2;Temp;Humidity;BMP_temperature;BMP_pressure;BME280_temperature;BME280_humidity;BME280_pressure;Samples;Min_cycle;Max_cycle;Signal;HPM_P1;HPM_P2
2021/12/22 00:00:30;;;;;;;100.40;37.17;;;;;;;-145.45;100.00;62759.84;5225396;28;20022;-83
2021/12/22 00:03:04;;;;;;;100.05;36.25;;;;;;;-145.45;100.00;62759.84;5203175;28;20041;-82
2021/12/22 00:05:43;;;;;;;102.28;36.72;;;;;;;-145.45;100.00;62759.84;5221622;28;20023;-83
2021/12/22 00:08:15;;;;;;;100.18;37.35;;;;;;;-145.45;100.00;62759.84;5223717;28;20027;-82
2021/12/22 00:10:47;;;;;;;83.05;35.28;;;;;;;-145.45;100.00;62759.84;5211658;28;20029;-83
2021/12/22 00:13:18;;;;;;;89.10;36.15;;;;;;;-145.45;100.00;62759.84;5230630;28;20038;-83
2021/12/22 00:15:50;;;;;;;88.28;34.80;;;;;;;-145.45;100.00;62759.84;5230864;28;20033;-82
2021/12/22 00:18:21;;;;;;;87.97;35.45;;;;;;;-145.45;100.00;62759.84;5229349;28;20472;-83
2021/12/22 00:20:52;;;;;;;92.30;36.45;;;;;;;-145.45;100.00;62759.84;5230083;28;20049;-83
2021/12/22 00:23:24;;;;;;;92.32;35.20;;;;;;;-145.45;100.00;62759.84;5210230;28;20057;-83
2021/12/22 00:25:56;;;;;;;84.30;34.47;;;;;;;-145.45;100.00;62759.84;5230382;28;20105;-83
2021/12/22 00:28:27;;;;;;;94.38;36.58;;;;;;;-145.45;100.00;62759.84;5222600;28;20514;-83
2021/12/22 00:31:00;;;;;;;97.30;37.55;;;;;;;-145.45;100.00;62759.84;5204721;28;20059;-83
2021/12/22 00:33:32;;;;;;;99.25;38.85;;;;;;;-145.45;100.00;62759.84;5225651;28;20069;-83
2021/12/22 00:36:04;;;;;;;93.07;37.58;;;;;;;-145.45;100.00;62759.84;5230064;28;20015;-83
2021/12/22 00:38:35;;;;;;;105.20;39.20;;;;;;;-145.45;100.00;62759.84;5222508;28;20030;-83
2021/12/22 00:41:06;;;;;;;95.80;37.22;;;;;;;-145.45;100.00;62759.84;5228068;28;20038;-83
2021/12/22 00:43:38;;;;;;;99.95;39.47;;;;;;;-145.45;100.00;62759.84;5238984;28;20022;-82
2021/12/22 00:46:12;;;;;;;97.28;36.60;;;;;;;-145.45;100.00;62759.84;5240613;28;20056;-83
2021/12/22 00:48:43;;;;;;;97.95;38.65;;;;;;;-145.45;100.00;62759.84;5219037;28;20028;-82
2021/12/22 00:51:15;;;;;;;90.75;38.13;;;;;;;-145.45;100.00;62759.84;5222245;28;20086;-82
2021/12/22 00:53:46;;;;;;;93.88;36.40;;;;;;;-145.45;100.00;62759.84;5222533;28;20089;-83
2021/12/22 00:56:17;;;;;;;97.63;38.42;;;;;;;-145.45;100.00;62759.84;5222062;28;20392;-83
2021/12/22 00:58:48;;;;;;;91.72;36.65;;;;;;;-145.45;100.00;62759.84;5204505;28;20022;-83
2021/12/22 01:01:20;;;;;;;94.43;36.60;;;;;;;-145.45;100.00;62759.84;5224376;28;20033;-82
2021/12/22 01:03:51;;;;;;;97.68;36.95;;;;;;;-145.45;100.00;62759.84;5219770;28;20034;-82
2021/12/22 01:06:23;;;;;;;87.68;32.92;;;;;;;-145.45;100.00;62759.84;5220535;28;20523;-83
2021/12/22 01:08:55;;;;;;;98.45;36.15;;;;;;;-145.45;100.00;62759.84;5202087;28;20080;-83
2021/12/22 01:11:26;;;;;;;91.00;36.05;;;;;;;-145.45;100.00;62759.84;5219157;28;20023;-83
2021/12/22 01:13:57;;;;;;;97.13;36.72;;;;;;;-145.45;100.00;62759.84;5201409;28;20134;-83
2021/12/22 01:16:29;;;;;;;89.00;36.08;;;;;;;-145.45;100.00;62759.84;5210834;28;20183;-83
2021/12/22 01:19:04;;;;;;;94.78;34.85;;;;;;;-145.45;100.00;62759.84;5218844;28;20058;-83
2021/12/22 01:21:42;;;;;;;94.18;37.55;;;;;;;-145.45;100.00;62759.84;5220523;28;20034;-83
2021/12/22 01:24:28;;;;;;;79.60;33.33;;;;;;;-145.45;100.00;62759.84;5221137;28;20379;-83
2021/12/22 01:27:09;;;;;;;93.35;35.35;;;;;;;-145.45;100.00;62759.84;5223387;28;20030;-83
2021/12/22 01:29:41;;;;;;;90.10;33.03;;;;;;;-145.45;100.00;62759.84;5221378;28;20344;-83
2021/12/22 01:32:13;;;;;;;87.22;34.05;;;;;;;-145.45;100.00;62759.84;5203404;28;20137;-83
2021/12/22 01:34:45;;;;;;;91.25;35.53;;;;;;;-145.45;100.00;62759.84;5219509;28;20037;-82
2021/12/22 01:37:16;;;;;;;93.07;35.80;;;;;;;-145.45;100.00;62759.84;5220811;28;42004;-83
2021/12/22 01:39:48;;;;;;;82.22;31.88;;;;;;;-145.45;100.00;62759.84;5220566;28;20027;-83
2021/12/22 01:42:19;;;;;;;80.70;32.95;;;;;;;-145.45;100.00;62759.84;5221889;28;20697;-83
2021/12/22 01:50:38;;;;;;;80.95;33.63;;;;;;;-145.45;100.00;62759.84;5218827;28;20035;-83
2021/12/22 01:53:21;;;;;;;87.95;34.42;;;;;;;-145.45;100.00;62759.84;5214155;28;20046;-83
2021/12/22 01:56:11;;;;;;;84.53;33.20;;;;;;;-145.45;100.00;62759.84;5218824;28;32982;-83
2021/12/22 01:58:46;;;;;;;97.90;35.17;;;;;;;-145.45;100.00;62759.84;5219271;28;20167;-83
2021/12/22 02:01:18;;;;;;;85.15;33.72;;;;;;;-145.45;100.00;62759.84;5217888;28;20117;-83
2021/12/22 02:03:51;;;;;;;90.57;34.92;;;;;;;-145.45;100.00;62759.84;5202179;28;20487;-83
2021/12/22 02:06:23;;;;;;;86.28;33.88;;;;;;;-145.45;100.00;62759.84;5218344;28;20054;-83
2021/12/22 02:08:55;;;;;;;84.95;33.33;;;;;;;-145.45;100.00;62759.84;5219697;28;20022;-83
2021/12/22 02:11:26;;;;;;;92.72;35.22;;;;;;;-145.45;100.00;62759.84;5223751;28;20120;-83
2021/12/22 02:14:01;;;;;;;85.05;35.60;;;;;;;-145.45;100.00;62759.84;5209051;28;20112;-83
2021/12/22 02:16:37;;;;;;;82.22;33.33;;;;;;;-145.45;100.00;62759.84;5220158;28;20038;-83
2021/12/22 02:19:10;;;;;;;79.87;33.27;;;;;;;-145.45;100.00;62759.84;5219578;28;20085;-83
2021/12/22 02:21:47;;;;;;;86.80;33.13;;;;;;;-145.45;100.00;62759.84;5221748;28;20285;-83
2021/12/22 02:24:18;;;;;;;77.07;33.80;;;;;;;-145.45;100.00;62759.84;5219699;28;20034;-83
2021/12/22 02:26:58;;;;;;;79.20;31.85;;;;;;;-145.45;100.00;62759.84;5220792;28;20045;-83
2021/12/22 02:29:38;;;;;;;78.95;32.75;;;;;;;-145.45;100.00;62759.84;5218699;28;20033;-83
2021/12/22 02:32:26;;;;;;;78.03;32.58;;;;;;;-145.45;100.00;62759.84;5218455;28;20041;-83
2021/12/22 02:35:02;;;;;;;85.45;33.25;;;;;;;-145.45;100.00;62759.84;5202030;28;20049;-83
2021/12/22 02:37:42;;;;;;;72.90;31.40;;;;;;;-145.45;100.00;62759.84;5204555;28;20022;-83
2021/12/22 02:40:17;;;;;;;85.53;33.90;;;;;;;-145.45;100.00;62759.84;5220926;28;20391;-83
2021/12/22 02:42:53;;;;;;;77.20;32.90;;;;;;;-145.45;100.00;62759.84;5220471;28;20069;-83
2021/12/22 02:45:24;;;;;;;81.80;31.98;;;;;;;-145.45;100.00;62759.84;5219837;28;20031;-83
2021/12/22 02:47:55;;;;;;;88.88;32.42;;;;;;;-145.45;100.00;62759.84;5203405;28;20026;-83
2021/12/22 02:50:27;;;;;;;77.22;32.20;;;;;;;-145.45;100.00;62759.84;5221502;28;20531;-83
2021/12/22 02:53:16;;;;;;;80.75;31.98;;;;;;;-145.45;100.00;62759.84;5219064;28;20060;-83
2021/12/22 02:56:13;;;;;;;75.63;30.23;;;;;;;-145.45;100.00;62759.84;5220702;28;20129;-84
2021/12/22 02:58:59;;;;;;;77.43;30.90;;;;;;;-145.45;100.00;62759.84;5217515;28;20037;-83
2021/12/22 03:04:12;;;;;;;69.15;28.77;;;;;;;-145.45;100.00;62759.84;5216396;28;20117;-83
2021/12/22 03:06:52;;;;;;;72.60;30.40;;;;;;;-145.45;100.00;62759.84;5213187;28;20038;-83
2021/12/22 03:09:32;;;;;;;73.88;30.98;;;;;;;-145.45;100.00;62759.84;5214139;28;20027;-83
2021/12/22 03:12:06;;;;;;;72.63;30.00;;;;;;;-145.45;100.00;62759.84;5216071;28;20030;-84
2021/12/22 03:14:38;;;;;;;64.68;27.98;;;;;;;-145.45;100.00;62759.84;5219326;28;20039;-83
2021/12/22 03:17:09;;;;;;;61.47;27.20;;;;;;;-145.45;100.00;62759.84;5217242;28;20399;-83
2021/12/22 03:19:40;;;;;;;66.05;27.55;;;;;;;-145.45;100.00;62759.84;5219599;28;20034;-83
2021/12/22 03:22:17;;;;;;;66.22;28.92;;;;;;;-145.45;100.00;62759.84;5219119;28;20027;-83
2021/12/22 03:24:50;;;;;;;66.63;28.10;;;;;;;-145.45;100.00;62759.84;5216518;28;20019;-83
2021/12/22 03:27:23;;;;;;;63.40;27.27;;;;;;;-145.45;100.00;62759.84;5202959;28;20015;-82
2021/12/22 03:29:54;;;;;;;64.90;26.25;;;;;;;-145.45;100.00;62759.84;5223372;28;20491;-83
2021/12/22 03:32:25;;;;;;;63.17;26.52;;;;;;;-145.45;100.00;62759.84;5207133;28;20030;-83
2021/12/22 03:34:57;;;;;;;61.30;25.08;;;;;;;-145.45;100.00;62759.84;5220694;28;20038;-82
2021/12/22 03:37:28;;;;;;;54.83;25.48;;;;;;;-145.45;100.00;62759.84;5224996;28;20030;-83
2021/12/22 03:39:59;;;;;;;64.03;26.75;;;;;;;-145.45;100.00;62759.84;5217458;28;42954;-83
2021/12/22 03:42:31;;;;;;;63.08;26.02;;;;;;;-145.45;100.00;62759.84;5209842;28;20543;-83
2021/12/22 03:45:04;;;;;;;58.25;25.88;;;;;;;-145.45;100.00;62759.84;5219902;28;20049;-83
2021/12/22 03:47:35;;;;;;;60.55;25.83;;;;;;;-145.45;100.00;62759.84;5217021;28;20632;-83
2021/12/22 03:50:08;;;;;;;62.75;26.77;;;;;;;-145.45;100.00;62759.84;5227318;28;20105;-83
2021/12/22 03:52:41;;;;;;;64.65;26.70;;;;;;;-145.45;100.00;62759.84;5222528;28;20113;-85
2021/12/22 03:55:12;;;;;;;67.45;26.75;;;;;;;-145.45;100.00;62759.84;5219724;28;20077;-83
2021/12/22 03:57:44;;;;;;;68.00;28.67;;;;;;;-145.45;100.00;62759.84;5223574;28;20054;-83
2021/12/22 04:00:15;;;;;;;60.95;28.42;;;;;;;-145.45;100.00;62759.84;5220289;28;20117;-83
2021/12/22 04:02:46;;;;;;;63.33;26.92;;;;;;;-145.45;100.00;62759.84;5222664;28;20023;-83
2021/12/22 04:05:18;;;;;;;67.97;28.25;;;;;;;-145.45;100.00;62759.84;5203429;28;20457;-83
2021/12/22 04:07:50;;;;;;;62.15;26.77;;;;;;;-145.45;100.00;62759.84;5167989;28;1040258;-83
2021/12/22 04:10:23;;;;;;;63.75;27.80;;;;;;;-145.45;100.00;62759.84;5222575;28;20462;-83
2021/12/22 04:12:55;;;;;;;68.70;27.98;;;;;;;-145.45;100.00;62759.84;5223252;28;20416;-83
2021/12/22 04:15:27;;;;;;;69.70;28.08;;;;;;;-145.45;100.00;62759.84;5221189;28;20051;-83
2021/12/22 04:17:58;;;;;;;63.80;29.20;;;;;;;-145.45;100.00;62759.84;5203992;28;20109;-83
2021/12/22 04:20:30;;;;;;;70.13;28.88;;;;;;;-145.45;100.00;62759.84;5222111;28;20045;-83
2021/12/22 04:23:01;;;;;;;64.45;27.92;;;;;;;-145.45;100.00;62759.84;5221404;28;20498;-83
2021/12/22 04:25:33;;;;;;;64.88;27.77;;;;;;;-145.45;100.00;62759.84;5226497;28;20058;-83
2021/12/22 04:28:08;;;;;;;63.58;28.08;;;;;;;-145.45;100.00;62759.84;5221615;28;20378;-83
2021/12/22 04:30:45;;;;;;;68.13;27.60;;;;;;;-145.45;100.00;62759.84;5214827;28;20098;-82
2021/12/22 04:33:21;;;;;;;59.67;27.42;;;;;;;-145.45;100.00;62759.84;5222845;28;20038;-83
2021/12/22 04:35:53;;;;;;;58.60;26.92;;;;;;;-145.45;100.00;62759.84;5220093;28;20030;-83
2021/12/22 04:38:25;;;;;;;59.75;25.80;;;;;;;-145.45;100.00;62759.84;5219021;28;20030;-82
2021/12/22 04:40:56;;;;;;;63.55;27.83;;;;;;;-145.45;100.00;62759.84;5220407;28;20424;-83
2021/12/22 04:43:28;;;;;;;57.80;27.30;;;;;;;-145.45;100.00;62759.84;5218644;28;20081;-82
2021/12/22 04:45:59;;;;;;;57.55;26.45;;;;;;;-145.45;100.00;62759.84;5220133;28;20026;-83
2021/12/22 04:48:32;;;;;;;62.70;28.52;;;;;;;-145.45;100.00;62759.84;5220415;28;20022;-83
2021/12/22 04:51:12;;;;;;;60.17;25.88;;;;;;;-145.45;100.00;62759.84;5200010;28;20475;-82
2021/12/22 04:53:55;;;;;;;61.20;25.88;;;;;;;-145.45;100.00;62759.84;5226375;28;20416;-83
2021/12/22 04:56:26;;;;;;;59.38;26.90;;;;;;;-145.45;100.00;62759.84;5231486;28;20022;-82
2021/12/22 04:58:58;;;;;;;64.65;27.00;;;;;;;-145.45;100.00;62759.84;5232318;28;20089;-82
2021/12/22 05:01:29;;;;;;;65.10;26.67;;;;;;;-145.45;100.00;62759.84;5230843;28;20133;-83
2021/12/22 05:04:00;;;;;;;59.67;26.17;;;;;;;-145.45;100.00;62759.84;5224619;28;20165;-85
2021/12/22 05:06:33;;;;;;;54.20;25.05;;;;;;;-145.45;100.00;62759.84;5201783;28;20042;-83
2021/12/22 05:09:05;;;;;;;57.78;25.08;;;;;;;-145.45;100.00;62759.84;5222598;28;20417;-83
2021/12/22 05:11:37;;;;;;;52.38;24.98;;;;;;;-145.45;100.00;62759.84;5219359;28;20029;-83
2021/12/22 05:14:09;;;;;;;47.92;23.33;;;;;;;-145.45;100.00;62759.84;5211388;28;20058;-83
2021/12/22 05:16:46;;;;;;;60.60;25.35;;;;;;;-145.45;100.00;62759.84;5218679;28;20033;-83
2021/12/22 05:19:17;;;;;;;59.45;24.23;;;;;;;-145.45;100.00;62759.84;5220077;28;20430;-83
2021/12/22 05:21:48;;;;;;;56.22;24.80;;;;;;;-145.45;100.00;62759.84;5223100;28;20101;-83
2021/12/22 05:24:21;;;;;;;53.50;25.13;;;;;;;-145.45;100.00;62759.84;5217776;28;20049;-83
2021/12/22 05:26:52;;;;;;;49.65;23.70;;;;;;;-145.45;100.00;62759.84;5220415;28;20437;-83
2021/12/22 05:29:24;;;;;;;51.20;23.90;;;;;;;-145.45;100.00;62759.84;5219830;28;20026;-83
2021/12/22 05:31:56;;;;;;;50.42;24.02;;;;;;;-145.45;100.00;62759.84;5221321;28;20014;-83
2021/12/22 05:34:27;;;;;;;50.53;23.45;;;;;;;-145.45;100.00;62759.84;5213105;28;20038;-82
2021/12/22 05:36:59;;;;;;;54.72;23.98;;;;;;;-145.45;100.00;62759.84;5220139;28;20057;-82
2021/12/22 05:39:31;;;;;;;48.13;22.45;;;;;;;-145.45;100.00;62759.84;5220289;28;20033;-83
2021/12/22 05:42:02;;;;;;;53.55;22.67;;;;;;;-145.45;100.00;62759.84;5226190;28;20395;-83
2021/12/22 05:44:33;;;;;;;50.95;23.13;;;;;;;-145.45;100.00;62759.84;5221588;28;20054;-83
2021/12/22 05:47:05;;;;;;;45.03;21.73;;;;;;;-145.45;100.00;62759.84;5225316;28;20030;-83
2021/12/22 05:49:37;;;;;;;42.45;22.27;;;;;;;-145.45;100.00;62759.84;5204424;28;20026;-82
2021/12/22 05:52:08;;;;;;;45.28;22.13;;;;;;;-145.45;100.00;62759.84;5224351;28;20117;-83
2021/12/22 05:54:39;;;;;;;48.85;23.13;;;;;;;-145.45;100.00;62759.84;5221108;28;20049;-82
2021/12/22 05:57:10;;;;;;;50.55;21.52;;;;;;;-145.45;100.00;62759.84;5203753;28;20121;-82
2021/12/22 05:59:42;;;;;;;42.80;22.67;;;;;;;-145.45;100.00;62759.84;5222872;28;20451;-82
2021/12/22 06:02:13;;;;;;;45.40;20.52;;;;;;;-145.45;100.00;62759.84;5220799;28;42596;-82
2021/12/22 06:04:44;;;;;;;47.58;23.35;;;;;;;-145.45;100.00;62759.84;5219332;28;20479;-83
2021/12/22 06:07:16;;;;;;;50.53;22.23;;;;;;;-145.45;100.00;62759.84;5217641;28;20074;-82
2021/12/22 06:09:47;;;;;;;44.40;20.65;;;;;;;-145.45;100.00;62759.84;5218016;28;20475;-82
2021/12/22 06:12:19;;;;;;;47.63;22.20;;;;;;;-145.45;100.00;62759.84;5217240;28;20022;-83
2021/12/22 06:14:50;;;;;;;43.67;21.70;;;;;;;-145.45;100.00;62759.84;5215233;28;20053;-82
2021/12/22 06:17:22;;;;;;;42.88;22.63;;;;;;;-145.45;100.00;62759.84;5219392;28;20026;-82
2021/12/22 06:19:53;;;;;;;46.20;21.70;;;;;;;-145.45;100.00;62759.84;5218113;28;20022;-82
2021/12/22 06:22:26;;;;;;;45.92;22.15;;;;;;;-145.45;100.00;62759.84;5219013;28;20074;-82
2021/12/22 06:24:58;;;;;;;48.80;23.08;;;;;;;-145.45;100.00;62759.84;5201233;28;20080;-82
2021/12/22 06:27:29;;;;;;;44.80;21.52;;;;;;;-145.45;100.00;62759.84;5217272;28;41088;-83
2021/12/22 06:30:00;;;;;;;46.95;22.95;;;;;;;-145.45;100.00;62759.84;5201019;28;20400;-82
2021/12/22 06:32:32;;;;;;;46.35;22.45;;;;;;;-145.45;100.00;62759.84;5218176;28;20018;-82
2021/12/22 06:35:04;;;;;;;49.55;24.40;;;;;;;-145.45;100.00;62759.84;5218518;28;20038;-82
2021/12/22 06:37:36;;;;;;;47.97;23.45;;;;;;;-145.45;100.00;62759.84;5218824;28;20034;-82
2021/12/22 06:40:08;;;;;;;47.38;22.48;;;;;;;-145.45;100.00;62759.84;5218723;28;20026;-82
2021/12/22 06:42:40;;;;;;;45.20;22.88;;;;;;;-145.45;100.00;62759.84;5219724;28;20069;-83
2021/12/22 06:45:12;;;;;;;47.70;21.75;;;;;;;-145.45;100.00;62759.84;5200486;28;20026;-82
2021/12/22 06:47:43;;;;;;;47.33;23.02;;;;;;;-145.45;100.00;62759.84;5218988;28;20026;-83
2021/12/22 06:50:15;;;;;;;44.58;21.63;;;;;;;-145.45;100.00;62759.84;5218628;28;20138;-83
2021/12/22 06:52:46;;;;;;;44.78;21.55;;;;;;;-145.45;100.00;62759.84;5217331;28;40659;-82
2021/12/22 06:55:17;;;;;;;42.28;21.95;;;;;;;-145.45;100.00;62759.84;5218858;28;20027;-82
2021/12/22 06:57:49;;;;;;;44.47;23.25;;;;;;;-145.45;100.00;62759.84;5218824;28;20050;-82
2021/12/22 07:00:20;;;;;;;40.72;21.80;;;;;;;-145.45;100.00;62759.84;5218826;28;20022;-82
2021/12/22 07:02:52;;;;;;;41.67;22.65;;;;;;;-145.45;100.00;62759.84;5198710;28;20049;-82
2021/12/22 07:05:24;;;;;;;46.13;22.33;;;;;;;-145.45;100.00;62759.84;5216578;28;20022;-82
2021/12/22 07:07:55;;;;;;;44.95;20.90;;;;;;;-145.45;100.00;62759.84;5200576;28;20055;-82
2021/12/22 07:10:26;;;;;;;46.17;21.17;;;;;;;-145.45;100.00;62759.84;5216219;28;20080;-82
2021/12/22 07:12:58;;;;;;;44.03;21.65;;;;;;;-145.45;100.00;62759.84;5218843;28;20082;-82
2021/12/22 07:15:29;;;;;;;43.22;21.13;;;;;;;-145.45;100.00;62759.84;5200646;28;20042;-83
2021/12/22 07:18:02;;;;;;;39.78;21.40;;;;;;;-145.45;100.00;62759.84;5218813;28;20125;-83
2021/12/22 07:20:33;;;;;;;43.33;20.75;;;;;;;-145.45;100.00;62759.84;5216730;28;20023;-82
2021/12/22 07:23:04;;;;;;;49.30;21.30;;;;;;;-145.45;100.00;62759.84;5217262;28;20387;-83
2021/12/22 07:25:36;;;;;;;42.20;20.63;;;;;;;-145.45;100.00;62759.84;5217657;28;20776;-83
2021/12/22 07:28:10;;;;;;;42.38;19.75;;;;;;;-145.45;100.00;62759.84;5217867;28;20061;-83
2021/12/22 07:30:42;;;;;;;43.90;20.75;;;;;;;-145.45;100.00;62759.84;5217964;28;20022;-83
2021/12/22 07:33:13;;;;;;;42.42;21.50;;;;;;;-145.45;100.00;62759.84;5217758;28;20030;-83
2021/12/22 07:35:58;;;;;;;39.38;21.23;;;;;;;-145.45;100.00;62759.84;5217933;28;20085;-82
2021/12/22 07:38:42;;;;;;;40.10;20.15;;;;;;;-145.45;100.00;62759.84;5216933;28;20471;-83
2021/12/22 07:41:13;;;;;;;36.92;19.33;;;;;;;-145.45;100.00;62759.84;5217522;28;20033;-83
2021/12/22 07:43:45;;;;;;;42.47;20.38;;;;;;;-145.45;100.00;62759.84;5199406;28;20023;-83
2021/12/22 07:46:16;;;;;;;41.15;21.17;;;;;;;-145.45;100.00;62759.84;5217168;28;20408;-83
2021/12/22 07:48:47;;;;;;;43.03;21.17;;;;;;;-145.45;100.00;62759.84;5216720;28;20383;-83
2021/12/22 07:51:19;;;;;;;42.85;20.65;;;;;;;-145.45;100.00;62759.84;5216825;28;20034;-83
2021/12/22 07:53:50;;;;;;;35.88;17.90;;;;;;;-145.45;100.00;62759.84;5217441;28;20615;-83
2021/12/22 07:56:21;;;;;;;40.00;20.63;;;;;;;-145.45;100.00;62759.84;5199668;28;20038;-82
2021/12/22 07:58:54;;;;;;;49.35;21.45;;;;;;;-145.45;100.00;62759.84;5217763;28;20117;-83
2021/12/22 08:01:25;;;;;;;47.75;20.77;;;;;;;-145.45;100.00;62759.84;5216915;28;20378;-82
2021/12/22 08:03:56;;;;;;;42.25;21.63;;;;;;;-145.45;100.00;62759.84;5217560;28;20030;-83
2021/12/22 08:06:27;;;;;;;39.40;20.13;;;;;;;-145.45;100.00;62759.84;5216422;28;20118;-83
2021/12/22 08:08:59;;;;;;;40.20;23.25;;;;;;;-145.45;100.00;62759.84;5218849;28;20030;-82
2021/12/22 08:11:30;;;;;;;47.35;22.15;;;;;;;-145.45;100.00;62759.84;5200610;28;20026;-83
2021/12/22 08:14:01;;;;;;;36.67;21.65;;;;;;;-145.45;100.00;62759.84;5221232;28;20034;-83
2021/12/22 08:16:33;;;;;;;42.88;24.15;;;;;;;-145.45;100.00;62759.84;5203923;28;20022;-82
2021/12/22 08:19:04;;;;;;;39.15;20.67;;;;;;;-145.45;100.00;62759.84;5219675;28;20041;-82
2021/12/22 08:21:36;;;;;;;41.72;21.05;;;;;;;-145.45;100.00;62759.84;5219851;28;20030;-82
2021/12/22 08:24:07;;;;;;;37.28;19.92;;;;;;;-145.45;100.00;62759.84;5221483;28;20060;-82
2021/12/22 08:26:38;;;;;;;36.78;20.25;;;;;;;-145.45;100.00;62759.84;5221452;28;20026;-82
2021/12/22 08:29:09;;;;;;;37.38;20.23;;;;;;;-145.45;100.00;62759.84;5222296;28;20097;-82
2021/12/22 08:31:41;;;;;;;39.72;23.23;;;;;;;-145.45;100.00;62759.84;5221453;28;20038;-82
2021/12/22 08:34:16;;;;;;;32.75;20.33;;;;;;;-145.45;100.00;62759.84;5221839;28;20034;-82
2021/12/22 08:39:37;;;;;;;45.85;22.35;;;;;;;-145.45;100.00;62759.84;5221256;28;20042;-83
2021/12/22 08:42:11;;;;;;;40.22;22.35;;;;;;;-145.45;100.00;62759.84;5221775;28;20089;-82
2021/12/22 08:44:43;;;;;;;39.08;20.52;;;;;;;-145.45;100.00;62759.84;5221113;28;20018;-82
2021/12/22 08:47:15;;;;;;;40.38;21.02;;;;;;;-145.45;100.00;62759.84;5212903;28;20033;-82
2021/12/22 08:49:47;;;;;;;41.72;22.38;;;;;;;-145.45;100.00;62759.84;5211702;28;20110;-82
2021/12/22 08:52:18;;;;;;;46.00;22.50;;;;;;;-145.45;100.00;62759.84;5222496;28;20081;-82
2021/12/22 08:54:59;;;;;;;40.83;22.60;;;;;;;-145.45;100.00;62759.84;5203049;28;20438;-82
2021/12/22 08:57:30;;;;;;;36.58;21.75;;;;;;;-145.45;100.00;62759.84;5221348;28;20027;-82
2021/12/22 09:00:09;;;;;;;36.92;20.25;;;;;;;-145.45;100.00;62759.84;5221522;28;20026;-82
2021/12/22 09:02:40;;;;;;;39.22;23.02;;;;;;;-145.45;100.00;62759.84;5220642;28;20073;-82
2021/12/22 09:05:12;;;;;;;42.25;21.40;;;;;;;-145.45;100.00;62759.84;5218407;28;20078;-82
2021/12/22 09:07:43;;;;;;;37.45;22.17;;;;;;;-145.45;100.00;62759.84;5217841;28;20515;-82
2021/12/22 09:10:14;;;;;;;46.90;24.08;;;;;;;-145.45;100.00;62759.84;5217161;28;20533;-82
2021/12/22 09:12:47;;;;;;;41.45;24.08;;;;;;;-145.45;100.00;62759.84;5203940;28;20475;-82
2021/12/22 09:15:19;;;;;;;39.97;21.17;;;;;;;-145.45;100.00;62759.84;5221432;28;20027;-82
2021/12/22 09:17:50;;;;;;;36.90;20.90;;;;;;;-145.45;100.00;62759.84;5221827;28;20034;-81
2021/12/22 09:20:22;;;;;;;39.05;21.92;;;;;;;-145.45;100.00;62759.84;5222552;28;20037;-81
2021/12/22 09:22:53;;;;;;;34.38;20.33;;;;;;;-145.45;100.00;62759.84;5206602;28;20026;-82
2021/12/22 09:25:24;;;;;;;37.28;20.95;;;;;;;-145.45;100.00;62759.84;5221968;28;20092;-82
2021/12/22 09:27:58;;;;;;;40.90;22.02;;;;;;;-145.45;100.00;62759.84;5205447;28;25079;-82
2021/12/22 09:30:35;;;;;;;36.70;20.58;;;;;;;-145.45;100.00;62759.84;5221527;28;20022;-82
2021/12/22 09:33:11;;;;;;;32.05;19.55;;;;;;;-145.45;100.00;62759.84;5221004;28;20025;-82
2021/12/22 09:35:44;;;;;;;41.85;23.05;;;;;;;-145.45;100.00;62759.84;5220241;28;20471;-82
2021/12/22 09:38:16;;;;;;;41.28;23.88;;;;;;;-145.45;100.00;62759.84;5220660;28;20026;-82
2021/12/22 09:40:48;;;;;;;37.65;23.60;;;;;;;-145.45;100.00;62759.84;5202768;28;20015;-83
2021/12/22 09:43:19;;;;;;;42.70;23.92;;;;;;;-145.45;100.00;62759.84;5184925;28;20472;-82
2021/12/22 09:45:56;;;;;;;45.10;24.38;;;;;;;-145.45;100.00;62759.84;5221194;28;20431;-82
2021/12/22 09:53:45;;;;;;;32.53;19.98;;;;;;;-145.45;100.00;62759.84;5220421;28;20038;-82
2021/12/22 09:56:22;;;;;;;37.47;21.42;;;;;;;-145.45;100.00;62759.84;5219913;28;20028;-82
2021/12/22 09:58:54;;;;;;;33.47;20.05;;;;;;;-145.45;100.00;62759.84;5202160;28;20031;-82
2021/12/22 10:01:26;;;;;;;34.20;20.13;;;;;;;-145.45;100.00;62759.84;5220260;28;20105;-82
2021/12/22 10:03:59;;;;;;;32.47;19.55;;;;;;;-145.45;100.00;62759.84;5216467;28;20099;-82
2021/12/22 10:06:30;;;;;;;36.88;19.35;;;;;;;-145.45;100.00;62759.84;5218706;28;20074;-82
2021/12/22 10:09:05;;;;;;;25.42;18.13;;;;;;;-145.45;100.00;62759.84;5220991;28;20109;-82
2021/12/22 10:11:43;;;;;;;32.13;19.55;;;;;;;-145.45;100.00;62759.84;5202240;28;20058;-82
2021/12/22 10:14:19;;;;;;;30.13;17.50;;;;;;;-145.45;100.00;62759.84;5201600;28;20490;-82
2021/12/22 10:16:54;;;;;;;29.13;18.23;;;;;;;-145.45;100.00;62759.84;5219971;28;20384;-82
2021/12/22 10:19:26;;;;;;;30.67;19.38;;;;;;;-145.45;100.00;62759.84;5202357;28;20031;-82
2021/12/22 10:22:01;;;;;;;33.90;19.52;;;;;;;-145.45;100.00;62759.84;5219805;28;20511;-82
2021/12/22 10:24:38;;;;;;;32.25;19.10;;;;;;;-145.45;100.00;62759.84;5201854;28;20478;-82
2021/12/22 10:27:17;;;;;;;26.45;18.98;;;;;;;-145.45;100.00;62759.84;5220003;28;20387;-82
2021/12/22 10:29:49;;;;;;;33.20;17.33;;;;;;;-145.45;100.00;62759.84;5201197;28;20038;-82
2021/12/22 10:32:20;;;;;;;25.98;17.17;;;;;;;-145.45;100.00;62759.84;5216274;28;20372;-82
2021/12/22 10:34:56;;;;;;;24.63;15.82;;;;;;;-145.45;100.00;62759.84;5219134;28;20039;-82
2021/12/22 10:37:33;;;;;;;23.60;16.08;;;;;;;-145.45;100.00;62759.84;5199530;28;20053;-82
2021/12/22 10:40:36;;;;;;;30.13;17.63;;;;;;;-145.45;100.00;62759.84;5218381;28;20038;-82
2021/12/22 10:43:13;;;;;;;25.10;15.60;;;;;;;-145.45;100.00;62759.84;5219180;28;20122;-82
2021/12/22 10:45:50;;;;;;;25.83;15.43;;;;;;;-145.45;100.00;62759.84;5217609;28;20113;-82
2021/12/22 10:51:19;;;;;;;22.27;15.00;;;;;;;-145.45;100.00;62759.84;5218810;28;19917;-82
2021/12/22 10:53:53;;;;;;;21.67;12.93;;;;;;;-145.45;100.00;62759.84;5219753;28;20089;-82
2021/12/22 10:56:30;;;;;;;26.10;13.35;;;;;;;-145.45;100.00;62759.84;5219855;28;20416;-82
2021/12/22 10:59:03;;;;;;;;;;;;;;;-145.45;100.00;62759.84;5220343;28;20432;-83
2021/12/22 11:01:36;;;;;;;21.25;13.90;;;;;;;-145.45;100.00;62759.84;5219713;28;20047;-82
2021/12/22 11:04:22;;;;;;;23.10;15.25;;;;;;;-145.45;100.00;62759.84;5216989;28;20030;-83
2021/12/22 11:06:56;;;;;;;26.08;18.63;;;;;;;-145.45;100.00;62759.84;5217045;28;20034;-82
2021/12/22 11:09:29;;;;;;;32.92;21.90;;;;;;;-145.45;100.00;62759.84;5218459;28;20034;-82
2021/12/22 11:12:01;;;;;;;28.73;22.23;;;;;;;-145.45;100.00;62759.84;5218767;28;20066;-82
2021/12/22 11:14:38;;;;;;;24.98;17.73;;;;;;;-145.45;100.00;62759.84;5221762;28;20130;-82
2021/12/22 11:17:14;;;;;;;18.27;13.25;;;;;;;-145.45;100.00;62759.84;5217855;28;20026;-83
2021/12/22 11:19:58;;;;;;;17.08;10.82;;;;;;;-145.45;100.00;62759.84;5193499;28;20034;-83
2021/12/22 11:23:01;;;;;;;14.20;8.93;;;;;;;-145.45;100.00;62759.84;5200999;28;20126;-83
2021/12/22 11:25:32;;;;;;;14.82;8.93;;;;;;;-145.45;100.00;62759.84;5166827;28;20121;-83
2021/12/22 11:28:04;;;;;;;14.80;8.23;;;;;;;-145.45;100.00;62759.84;5199455;28;20019;-84
2021/12/22 11:30:36;;;;;;;14.38;8.35;;;;;;;-145.45;100.00;62759.84;5181299;28;20073;-84
2021/12/22 11:33:08;;;;;;;12.88;8.43;;;;;;;-145.45;100.00;62759.84;5194196;28;20073;-84
2021/12/22 11:35:41;;;;;;;12.25;6.65;;;;;;;-145.45;100.00;62759.84;5210855;28;20070;-84
2021/12/22 11:38:12;;;;;;;11.85;7.05;;;;;;;-145.45;100.00;62759.84;5199426;28;20149;-84
2021/12/22 11:40:53;;;;;;;10.18;7.10;;;;;;;-145.45;100.00;62759.84;5199301;28;20099;-84